sensor_id;sensor_type;location;lat;lon;timestamp;pressure;altitude;pressure_sealevel;temperature;humidity
67434;BME280;54305;47.950;6.572;2023-02-20T00:01:27;95592.88;;;3.07;100.00
67434;BME280;54305;47.950;6.572;2023-02-20T00:03:55;95584.94;;;2.96;100.00
67434;BME280;54305;47.950;6.572;2023-02-20T00:06:20;95583.63;;;2.89;100.00
67434;BME280;54305;47.950;6.572;2023-02-20T00:08:48;95587.63;;;2.79;100.00
67434;BME280;54305;47.950;6.572;2023-02-20T00:11:13;95585.78;;;2.81;100.00
67434;BME280;54305;47.950;6.572;2023-02-20T00:13:43;95583.78;;;3.01;100.00
67434;BME280;54305;47.950;6.572;2023-02-20T00:16:08;95583.59;;;3.04;100.00
67434;BME280;54305;47.950;6.572;2023-02-20T00:18:34;95579.56;;;2.85;100.00
67434;BME280;54305;47.950;6.572;2023-02-20T00:20:59;95580.81;;;2.78;100.00
67434;BME280;54305;47.950;6.572;2023-02-20T00:23:24;95577.16;;;2.82;100.00
67434;BME280;54305;47.950;6.572;2023-02-20T00:25:49;95578.66;;;2.86;100.00
67434;BME280;54305;47.950;6.572;2023-02-20T00:28:15;95577.31;;;2.94;100.00
67434;BME280;54305;47.950;6.572;2023-02-20T00:30:40;95590.56;;;3.02;100.00
67434;BME280;54305;47.950;6.572;2023-02-20T00:33:05;95578.44;;;3.04;100.00
67434;BME280;54305;47.950;6.572;2023-02-20T00:35:30;95579.84;;;3.10;100.00
67434;BME280;54305;47.950;6.572;2023-02-20T00:37:56;95585.13;;;2.93;100.00
67434;BME280;54305;47.950;6.572;2023-02-20T00:40:22;95582.78;;;3.04;100.00
67434;BME280;54305;47.950;6.572;2023-02-20T00:42:48;95580.00;;;3.07;100.00
67434;BME280;54305;47.950;6.572;2023-02-20T00:45:13;95579.13;;;3.08;100.00
67434;BME280;54305;47.950;6.572;2023-02-20T00:47:39;95573.28;;;3.20;100.00
67434;BME280;54305;47.950;6.572;2023-02-20T00:50:04;95572.59;;;3.32;100.00
67434;BME280;54305;47.950;6.572;2023-02-20T00:52:30;95574.03;;;3.22;100.00
67434;BME280;54305;47.950;6.572;2023-02-20T00:54:55;95566.47;;;3.19;100.00
67434;BME280;54305;47.950;6.572;2023-02-20T00:57:23;95562.97;;;3.20;100.00
67434;BME280;54305;47.950;6.572;2023-02-20T00:59:48;95558.19;;;3.14;100.00
67434;BME280;54305;47.950;6.572;2023-02-20T01:02:13;95563.69;;;3.08;100.00
67434;BME280;54305;47.950;6.572;2023-02-20T01:04:39;95576.06;;;3.01;100.00
67434;BME280;54305;47.950;6.572;2023-02-20T01:07:04;95579.63;;;2.99;100.00
67434;BME280;54305;47.950;6.572;2023-02-20T01:09:29;95572.84;;;2.82;100.00
67434;BME280;54305;47.950;6.572;2023-02-20T01:11:55;95568.56;;;2.67;100.00
67434;BME280;54305;47.950;6.572;2023-02-20T01:14:20;95572.19;;;2.48;100.00
67434;BME280;54305;47.950;6.572;2023-02-20T01:16:45;95573.03;;;2.33;100.00
67434;BME280;54305;47.950;6.572;2023-02-20T01:19:11;95567.06;;;2.17;100.00
67434;BME280;54305;47.950;6.572;2023-02-20T01:21:36;95572.34;;;2.14;100.00
67434;BME280;54305;47.950;6.572;2023-02-20T01:24:01;95566.88;;;2.04;100.00
67434;BME280;54305;47.950;6.572;2023-02-20T01:26:27;95564.38;;;2.03;100.00
67434;BME280;54305;47.950;6.572;2023-02-20T01:28:52;95565.13;;;2.05;100.00
67434;BME280;54305;47.950;6.572;2023-02-20T01:31:17;95560.56;;;2.10;100.00
67434;BME280;54305;47.950;6.572;2023-02-20T01:33:43;95550.63;;;2.04;100.00
67434;BME280;54305;47.950;6.572;2023-02-20T01:36:09;95546.72;;;1.97;100.00
67434;BME280;54305;47.950;6.572;2023-02-20T01:38:34;95544.69;;;2.03;100.00
67434;BME280;54305;47.950;6.572;2023-02-20T01:40:59;95542.69;;;2.24;100.00
67434;BME280;54305;47.950;6.572;2023-02-20T01:43:25;95542.03;;;2.36;100.00
67434;BME280;54305;47.950;6.572;2023-02-20T01:45:50;95538.69;;;2.34;100.00
67434;BME280;54305;47.950;6.572;2023-02-20T01:48:17;95538.97;;;2.45;100.00
67434;BME280;54305;47.950;6.572;2023-02-20T01:50:43;95541.84;;;2.70;100.00
67434;BME280;54305;47.950;6.572;2023-02-20T01:53:10;95541.66;;;2.73;100.00
67434;BME280;54305;47.950;6.572;2023-02-20T01:55:38;95540.03;;;2.56;100.00
67434;BME280;54305;47.950;6.572;2023-02-20T01:58:11;95544.03;;;2.31;100.00
67434;BME280;54305;47.950;6.572;2023-02-20T02:00:39;95547.41;;;2.16;100.00
67434;BME280;54305;47.950;6.572;2023-02-20T02:03:06;95546.41;;;2.03;100.00
67434;BME280;54305;47.950;6.572;2023-02-20T02:05:32;95548.94;;;1.87;100.00
67434;BME280;54305;47.950;6.572;2023-02-20T02:07:58;95547.34;;;1.85;100.00
67434;BME280;54305;47.950;6.572;2023-02-20T02:11:11;95542.81;;;1.90;100.00
67434;BME280;54305;47.950;6.572;2023-02-20T02:13:10;95536.69;;;1.92;100.00
67434;BME280;54305;47.950;6.572;2023-02-20T02:15:36;95536.94;;;1.88;100.00
67434;BME280;54305;47.950;6.572;2023-02-20T02:33:39;95551.53;;;2.03;100.00
67434;BME280;54305;47.950;6.572;2023-02-20T02:46:05;95523.38;;;2.17;100.00
67434;BME280;54305;47.950;6.572;2023-02-20T02:48:36;95527.44;;;2.21;100.00
67434;BME280;54305;47.950;6.572;2023-02-20T02:51:08;95528.44;;;2.18;100.00
67434;BME280;54305;47.950;6.572;2023-02-20T02:53:34;95514.84;;;2.32;100.00
67434;BME280;54305;47.950;6.572;2023-02-20T02:56:00;95503.41;;;2.37;100.00
67434;BME280;54305;47.950;6.572;2023-02-20T02:58:45;95502.72;;;2.34;100.00
67434;BME280;54305;47.950;6.572;2023-02-20T03:01:11;95506.34;;;2.61;100.00
67434;BME280;54305;47.950;6.572;2023-02-20T03:03:37;95500.00;;;2.82;100.00
67434;BME280;54305;47.950;6.572;2023-02-20T03:06:10;95497.03;;;2.74;100.00
67434;BME280;54305;47.950;6.572;2023-02-20T03:08:39;95508.34;;;2.56;100.00
67434;BME280;54305;47.950;6.572;2023-02-20T03:11:06;95508.28;;;2.26;100.00
67434;BME280;54305;47.950;6.572;2023-02-20T03:13:40;95514.31;;;2.10;100.00
67434;BME280;54305;47.950;6.572;2023-02-20T03:16:30;95515.03;;;1.81;100.00
67434;BME280;54305;47.950;6.572;2023-02-20T03:18:57;95514.44;;;1.76;100.00
67434;BME280;54305;47.950;6.572;2023-02-20T03:21:24;95504.72;;;1.98;100.00
67434;BME280;54305;47.950;6.572;2023-02-20T03:23:52;95502.41;;;2.09;100.00
67434;BME280;54305;47.950;6.572;2023-02-20T03:26:22;95500.06;;;2.20;100.00
67434;BME280;54305;47.950;6.572;2023-02-20T03:28:53;95494.44;;;2.29;100.00
67434;BME280;54305;47.950;6.572;2023-02-20T03:31:20;95489.72;;;2.21;100.00
67434;BME280;54305;47.950;6.572;2023-02-20T03:33:55;95480.53;;;2.02;100.00
67434;BME280;54305;47.950;6.572;2023-02-20T03:36:44;95487.97;;;1.91;100.00
67434;BME280;54305;47.950;6.572;2023-02-20T03:39:32;95478.88;;;2.01;100.00
67434;BME280;54305;47.950;6.572;2023-02-20T03:42:18;95474.06;;;1.95;100.00
67434;BME280;54305;47.950;6.572;2023-02-20T03:45:06;95465.09;;;1.86;100.00
67434;BME280;54305;47.950;6.572;2023-02-20T03:47:32;95473.47;;;1.74;100.00
67434;BME280;54305;47.950;6.572;2023-02-20T03:50:00;95467.06;;;1.66;100.00
67434;BME280;54305;47.950;6.572;2023-02-20T03:52:26;95463.56;;;1.67;100.00
67434;BME280;54305;47.950;6.572;2023-02-20T03:54:51;95457.97;;;1.60;100.00
67434;BME280;54305;47.950;6.572;2023-02-20T03:57:18;95450.50;;;1.56;100.00
67434;BME280;54305;47.950;6.572;2023-02-20T03:59:51;95452.03;;;1.75;100.00
67434;BME280;54305;47.950;6.572;2023-02-20T04:02:22;95457.31;;;1.88;100.00
67434;BME280;54305;47.950;6.572;2023-02-20T04:04:51;95454.34;;;2.11;100.00
67434;BME280;54305;47.950;6.572;2023-02-20T04:07:21;95459.50;;;2.11;100.00
67434;BME280;54305;47.950;6.572;2023-02-20T04:09:48;95451.19;;;1.90;100.00
67434;BME280;54305;47.950;6.572;2023-02-20T04:12:21;95454.81;;;1.71;100.00
67434;BME280;54305;47.950;6.572;2023-02-20T04:14:48;95453.00;;;1.73;100.00
67434;BME280;54305;47.950;6.572;2023-02-20T04:17:16;95449.03;;;1.83;100.00
67434;BME280;54305;47.950;6.572;2023-02-20T04:19:44;95451.50;;;1.69;100.00
67434;BME280;54305;47.950;6.572;2023-02-20T04:22:11;95455.47;;;1.59;100.00
67434;BME280;54305;47.950;6.572;2023-02-20T04:24:53;95458.59;;;1.48;100.00
67434;BME280;54305;47.950;6.572;2023-02-20T04:27:20;95457.97;;;1.60;100.00
67434;BME280;54305;47.950;6.572;2023-02-20T04:29:46;95452.31;;;1.69;100.00
67434;BME280;54305;47.950;6.572;2023-02-20T04:32:11;95456.50;;;1.72;100.00
67434;BME280;54305;47.950;6.572;2023-02-20T04:34:36;95453.66;;;1.61;100.00
67434;BME280;54305;47.950;6.572;2023-02-20T04:37:09;95457.13;;;1.60;100.00
67434;BME280;54305;47.950;6.572;2023-02-20T04:39:35;95456.31;;;1.75;100.00
67434;BME280;54305;47.950;6.572;2023-02-20T04:42:00;95457.50;;;2.00;100.00
67434;BME280;54305;47.950;6.572;2023-02-20T04:44:26;95464.09;;;2.20;100.00
67434;BME280;54305;47.950;6.572;2023-02-20T04:47:02;95463.03;;;1.93;100.00
67434;BME280;54305;47.950;6.572;2023-02-20T04:49:28;95470.28;;;1.69;100.00
67434;BME280;54305;47.950;6.572;2023-02-20T04:51:53;95459.25;;;1.52;100.00
67434;BME280;54305;47.950;6.572;2023-02-20T04:54:20;95466.69;;;1.41;100.00
67434;BME280;54305;47.950;6.572;2023-02-20T04:56:45;95464.72;;;1.46;100.00
67434;BME280;54305;47.950;6.572;2023-02-20T04:59:10;95466.69;;;1.41;100.00
67434;BME280;54305;47.950;6.572;2023-02-20T05:01:36;95465.50;;;1.31;100.00
67434;BME280;54305;47.950;6.572;2023-02-20T05:04:01;95468.81;;;1.33;100.00
67434;BME280;54305;47.950;6.572;2023-02-20T05:06:26;95469.81;;;1.30;100.00
67434;BME280;54305;47.950;6.572;2023-02-20T05:08:51;95477.09;;;1.38;100.00
67434;BME280;54305;47.950;6.572;2023-02-20T05:11:17;95472.75;;;1.40;100.00
67434;BME280;54305;47.950;6.572;2023-02-20T05:13:42;95475.31;;;1.40;100.00
67434;BME280;54305;47.950;6.572;2023-02-20T05:16:07;95471.31;;;1.34;100.00
67434;BME280;54305;47.950;6.572;2023-02-20T05:18:33;95474.38;;;1.41;100.00
67434;BME280;54305;47.950;6.572;2023-02-20T05:20:58;95462.03;;;1.32;100.00
67434;BME280;54305;47.950;6.572;2023-02-20T05:23:44;95473.81;;;1.36;100.00
67434;BME280;54305;47.950;6.572;2023-02-20T05:26:10;95466.50;;;1.28;100.00
67434;BME280;54305;47.950;6.572;2023-02-20T05:28:36;95469.31;;;1.24;100.00
67434;BME280;54305;47.950;6.572;2023-02-20T05:31:03;95469.47;;;1.21;100.00
67434;BME280;54305;47.950;6.572;2023-02-20T05:33:29;95467.63;;;1.23;100.00
67434;BME280;54305;47.950;6.572;2023-02-20T05:35:54;95469.31;;;1.24;100.00
67434;BME280;54305;47.950;6.572;2023-02-20T05:38:19;95462.34;;;1.26;100.00
67434;BME280;54305;47.950;6.572;2023-02-20T05:40:44;95464.91;;;1.26;100.00
67434;BME280;54305;47.950;6.572;2023-02-20T05:43:09;95471.94;;;1.22;100.00
67434;BME280;54305;47.950;6.572;2023-02-20T05:45:35;95456.78;;;1.17;100.00
67434;BME280;54305;47.950;6.572;2023-02-20T05:48:00;95444.13;;;1.15;100.00
67434;BME280;54305;47.950;6.572;2023-02-20T05:50:25;95452.69;;;1.13;100.00
67434;BME280;54305;47.950;6.572;2023-02-20T05:52:50;95447.00;;;1.57;100.00
67434;BME280;54305;47.950;6.572;2023-02-20T05:55:16;95452.34;;;1.85;100.00
67434;BME280;54305;47.950;6.572;2023-02-20T05:57:44;95445.72;;;1.81;100.00
67434;BME280;54305;47.950;6.572;2023-02-20T06:00:09;95447.88;;;1.73;100.00
67434;BME280;54305;47.950;6.572;2023-02-20T06:02:35;95450.50;;;1.56;100.00
67434;BME280;54305;47.950;6.572;2023-02-20T06:05:01;95440.63;;;1.48;100.00
67434;BME280;54305;47.950;6.572;2023-02-20T06:07:27;95449.44;;;1.60;100.00
67434;BME280;54305;47.950;6.572;2023-02-20T06:09:52;95447.44;;;1.65;100.00
67434;BME280;54305;47.950;6.572;2023-02-20T06:12:17;95444.06;;;1.80;100.00
67434;BME280;54305;47.950;6.572;2023-02-20T06:14:42;95439.41;;;1.71;100.00
67434;BME280;54305;47.950;6.572;2023-02-20T06:17:08;95440.75;;;1.78;100.00
67434;BME280;54305;47.950;6.572;2023-02-20T06:19:33;95433.94;;;1.92;100.00
67434;BME280;54305;47.950;6.572;2023-02-20T06:21:59;95430.47;;;2.09;100.00
67434;BME280;54305;47.950;6.572;2023-02-20T06:24:24;95432.59;;;2.16;100.00
67434;BME280;54305;47.950;6.572;2023-02-20T06:26:49;95435.25;;;2.15;100.00
67434;BME280;54305;47.950;6.572;2023-02-20T06:29:16;95437.75;;;2.16;100.00
67434;BME280;54305;47.950;6.572;2023-02-20T06:31:41;95445.72;;;2.12;100.00
67434;BME280;54305;47.950;6.572;2023-02-20T06:34:07;95442.84;;;1.87;100.00
67434;BME280;54305;47.950;6.572;2023-02-20T06:36:34;95433.75;;;1.64;100.00
67434;BME280;54305;47.950;6.572;2023-02-20T06:38:59;95438.91;;;1.49;100.00
67434;BME280;54305;47.950;6.572;2023-02-20T06:41:25;95438.78;;;1.35;100.00
67434;BME280;54305;47.950;6.572;2023-02-20T06:43:50;95446.31;;;1.38;100.00
67434;BME280;54305;47.950;6.572;2023-02-20T06:46:16;95445.19;;;1.43;100.00
67434;BME280;54305;47.950;6.572;2023-02-20T06:51:09;95456.06;;;1.64;100.00
67434;BME280;54305;47.950;6.572;2023-02-20T06:53:35;95464.25;;;1.55;100.00
67434;BME280;54305;47.950;6.572;2023-02-20T06:56:05;95464.25;;;1.55;100.00
67434;BME280;54305;47.950;6.572;2023-02-20T06:58:30;95474.59;;;1.53;100.00
67434;BME280;54305;47.950;6.572;2023-02-20T07:00:55;95471.50;;;1.47;100.00
67434;BME280;54305;47.950;6.572;2023-02-20T07:03:21;95476.75;;;1.61;100.00
67434;BME280;54305;47.950;6.572;2023-02-20T07:05:46;95480.19;;;1.77;100.00
67434;BME280;54305;47.950;6.572;2023-02-20T07:08:11;95481.59;;;1.82;100.00
67434;BME280;54305;47.950;6.572;2023-02-20T07:10:36;95478.03;;;1.85;100.00
67434;BME280;54305;47.950;6.572;2023-02-20T07:13:02;95475.06;;;2.08;100.00
67434;BME280;54305;47.950;6.572;2023-02-20T07:15:30;95478.84;;;2.16;100.00
67434;BME280;54305;47.950;6.572;2023-02-20T07:17:55;95471.91;;;2.03;100.00
67434;BME280;54305;47.950;6.572;2023-02-20T07:20:20;95468.56;;;2.16;100.00
67434;BME280;54305;47.950;6.572;2023-02-20T07:22:49;95482.03;;;2.06;100.00
67434;BME280;54305;47.950;6.572;2023-02-20T07:25:15;95479.69;;;2.17;100.00
67434;BME280;54305;47.950;6.572;2023-02-20T07:27:40;95487.88;;;2.39;100.00
67434;BME280;54305;47.950;6.572;2023-02-20T07:30:06;95483.22;;;2.61;100.00
67434;BME280;54305;47.950;6.572;2023-02-20T07:32:31;95491.53;;;2.80;100.00
67434;BME280;54305;47.950;6.572;2023-02-20T07:34:56;95488.81;;;2.97;100.00
67434;BME280;54305;47.950;6.572;2023-02-20T07:37:21;95492.63;;;3.05;100.00
67434;BME280;54305;47.950;6.572;2023-02-20T07:39:47;95486.28;;;3.11;100.00
67434;BME280;54305;47.950;6.572;2023-02-20T07:42:12;95488.72;;;3.28;100.00
67434;BME280;54305;47.950;6.572;2023-02-20T07:44:37;95490.84;;;3.35;100.00
67434;BME280;54305;47.950;6.572;2023-02-20T07:47:02;95487.44;;;3.35;100.00
67434;BME280;54305;47.950;6.572;2023-02-20T07:49:27;95475.88;;;3.56;100.00
67434;BME280;54305;47.950;6.572;2023-02-20T07:51:53;95481.13;;;3.68;100.00
67434;BME280;54305;47.950;6.572;2023-02-20T07:54:18;95481.94;;;3.83;100.00
67434;BME280;54305;47.950;6.572;2023-02-20T07:56:43;95479.91;;;3.88;100.00
67434;BME280;54305;47.950;6.572;2023-02-20T07:59:08;95482.94;;;3.80;100.00
67434;BME280;54305;47.950;6.572;2023-02-20T08:01:34;95471.25;;;3.89;100.00
67434;BME280;54305;47.950;6.572;2023-02-20T08:03:59;95476.22;;;3.92;100.00
67434;BME280;54305;47.950;6.572;2023-02-20T08:06:24;95474.34;;;4.08;100.00
67434;BME280;54305;47.950;6.572;2023-02-20T08:08:50;95469.66;;;4.41;100.00
67434;BME280;54305;47.950;6.572;2023-02-20T08:11:19;95462.56;;;4.71;100.00
67434;BME280;54305;47.950;6.572;2023-02-20T08:13:46;95467.09;;;4.67;100.00
67434;BME280;54305;47.950;6.572;2023-02-20T08:16:12;95468.59;;;4.84;100.00
67434;BME280;54305;47.950;6.572;2023-02-20T08:18:37;95462.41;;;4.86;100.00
67434;BME280;54305;47.950;6.572;2023-02-20T08:21:02;95462.84;;;5.05;100.00
67434;BME280;54305;47.950;6.572;2023-02-20T08:23:28;95470.53;;;5.32;100.00
67434;BME280;54305;47.950;6.572;2023-02-20T08:25:53;95462.25;;;5.52;100.00
67434;BME280;54305;47.950;6.572;2023-02-20T08:28:18;95467.22;;;5.80;100.00
67434;BME280;54305;47.950;6.572;2023-02-20T08:30:44;95468.44;;;6.12;100.00
67434;BME280;54305;47.950;6.572;2023-02-20T08:33:09;95475.63;;;6.32;100.00
67434;BME280;54305;47.950;6.572;2023-02-20T08:35:34;95468.72;;;6.56;100.00
67434;BME280;54305;47.950;6.572;2023-02-20T08:38:00;95465.44;;;6.88;100.00
67434;BME280;54305;47.950;6.572;2023-02-20T08:40:26;95465.88;;;7.06;100.00
67434;BME280;54305;47.950;6.572;2023-02-20T08:42:51;95458.84;;;7.19;100.00
67434;BME280;54305;47.950;6.572;2023-02-20T08:45:16;95470.22;;;7.51;100.00
67434;BME280;54305;47.950;6.572;2023-02-20T08:47:42;95463.06;;;7.76;100.00
67434;BME280;54305;47.950;6.572;2023-02-20T08:50:07;95455.66;;;8.05;100.00
67434;BME280;54305;47.950;6.572;2023-02-20T08:52:32;95457.31;;;8.28;100.00
67434;BME280;54305;47.950;6.572;2023-02-20T08:54:57;95449.50;;;8.50;100.00
67434;BME280;54305;47.950;6.572;2023-02-20T08:57:23;95454.38;;;8.75;100.00
67434;BME280;54305;47.950;6.572;2023-02-20T08:59:48;95452.63;;;9.07;100.00
67434;BME280;54305;47.950;6.572;2023-02-20T09:02:14;95443.50;;;9.33;100.00
67434;BME280;54305;47.950;6.572;2023-02-20T09:04:41;95440.97;;;9.42;100.00
67434;BME280;54305;47.950;6.572;2023-02-20T09:07:07;95438.78;;;9.68;100.00
67434;BME280;54305;47.950;6.572;2023-02-20T09:09:32;95430.63;;;9.82;100.00
67434;BME280;54305;47.950;6.572;2023-02-20T09:11:57;95437.91;;;10.08;100.00
67434;BME280;54305;47.950;6.572;2023-02-20T09:14:22;95437.06;;;10.47;100.00
67434;BME280;54305;47.950;6.572;2023-02-20T09:16:50;95427.91;;;10.53;100.00
67434;BME280;54305;47.950;6.572;2023-02-20T09:19:15;95425.75;;;10.77;100.00
67434;BME280;54305;47.950;6.572;2023-02-20T09:21:44;95428.22;;;10.97;100.00
67434;BME280;54305;47.950;6.572;2023-02-20T09:24:09;95424.38;;;11.30;100.00
67434;BME280;54305;47.950;6.572;2023-02-20T09:26:34;95414.22;;;11.08;100.00
67434;BME280;54305;47.950;6.572;2023-02-20T09:29:00;95413.53;;;11.06;100.00
67434;BME280;54305;47.950;6.572;2023-02-20T09:31:25;95412.84;;;11.32;100.00
67434;BME280;54305;47.950;6.572;2023-02-20T09:33:50;95411.69;;;11.73;99.34
67434;BME280;54305;47.950;6.572;2023-02-20T09:36:15;95401.06;;;12.20;92.06
67434;BME280;54305;47.950;6.572;2023-02-20T09:38:41;95397.81;;;12.36;87.87
67434;BME280;54305;47.950;6.572;2023-02-20T09:41:08;95396.75;;;12.29;81.58
67434;BME280;54305;47.950;6.572;2023-02-20T09:46:16;95406.03;;;12.14;83.17
67434;BME280;54305;47.950;6.572;2023-02-20T09:48:45;95405.88;;;12.25;78.37
67434;BME280;54305;47.950;6.572;2023-02-20T09:51:15;95399.69;;;12.16;73.68
67434;BME280;54305;47.950;6.572;2023-02-20T09:56:25;95392.03;;;12.59;83.04
67434;BME280;54305;47.950;6.572;2023-02-20T10:01:37;95385.56;;;12.81;80.97
67434;BME280;54305;47.950;6.572;2023-02-20T10:04:04;95382.03;;;12.72;78.46
67434;BME280;54305;47.950;6.572;2023-02-20T10:06:32;95375.09;;;13.16;84.90
67434;BME280;54305;47.950;6.572;2023-02-20T10:08:58;95373.81;;;13.37;77.27
67434;BME280;54305;47.950;6.572;2023-02-20T10:14:32;95369.91;;;13.92;76.16
67434;BME280;54305;47.950;6.572;2023-02-20T10:16:46;95351.50;;;14.10;73.12
67434;BME280;54305;47.950;6.572;2023-02-20T10:21:53;95346.22;;;14.43;69.42
67434;BME280;54305;47.950;6.572;2023-02-20T10:29:36;95340.00;;;15.96;65.15
67434;BME280;54305;47.950;6.572;2023-02-20T10:32:05;95336.28;;;16.21;61.46
67434;BME280;54305;47.950;6.572;2023-02-20T10:37:05;95348.56;;;17.20;57.71
67434;BME280;54305;47.950;6.572;2023-02-20T10:39:32;95354.00;;;17.56;55.33
67434;BME280;54305;47.950;6.572;2023-02-20T10:42:00;95352.16;;;18.08;53.75
67434;BME280;54305;47.950;6.572;2023-02-20T10:44:29;95355.25;;;18.55;50.89
67434;BME280;54305;47.950;6.572;2023-02-20T10:47:00;95356.22;;;18.68;49.80
67434;BME280;54305;47.950;6.572;2023-02-20T10:51:58;95354.22;;;19.48;43.60
67434;BME280;54305;47.950;6.572;2023-02-20T10:54:45;95363.72;;;17.92;47.74
67434;BME280;54305;47.950;6.572;2023-02-20T10:57:10;95360.78;;;16.22;50.05
67434;BME280;54305;47.950;6.572;2023-02-20T11:02:09;95356.81;;;18.06;49.28
67434;BME280;54305;47.950;6.572;2023-02-20T11:04:38;95364.31;;;15.90;51.23
67434;BME280;54305;47.950;6.572;2023-02-20T11:07:09;95382.88;;;14.02;58.42
67434;BME280;54305;47.950;6.572;2023-02-20T11:09:36;95375.44;;;13.64;61.75
67434;BME280;54305;47.950;6.572;2023-02-20T11:12:01;95367.53;;;13.81;62.15
67434;BME280;54305;47.950;6.572;2023-02-20T11:14:30;95357.25;;;13.80;61.50
67434;BME280;54305;47.950;6.572;2023-02-20T11:16:57;95351.16;;;13.46;55.62
67434;BME280;54305;47.950;6.572;2023-02-20T11:19:31;95353.88;;;13.95;55.75
67434;BME280;54305;47.950;6.572;2023-02-20T11:21:58;95334.59;;;14.38;55.94
67434;BME280;54305;47.950;6.572;2023-02-20T11:27:04;95341.91;;;15.16;52.82
67434;BME280;54305;47.950;6.572;2023-02-20T11:29:39;95339.28;;;15.48;53.86
67434;BME280;54305;47.950;6.572;2023-02-20T11:32:22;95342.06;;;15.30;55.62
67434;BME280;54305;47.950;6.572;2023-02-20T11:35:01;95339.84;;;15.82;53.25
67434;BME280;54305;47.950;6.572;2023-02-20T11:37:26;95326.84;;;16.35;52.97
67434;BME280;54305;47.950;6.572;2023-02-20T11:39:52;95317.59;;;16.55;50.77
67434;BME280;54305;47.950;6.572;2023-02-20T11:42:18;95323.66;;;16.17;51.36
67434;BME280;54305;47.950;6.572;2023-02-20T11:44:44;95317.91;;;17.05;49.97
67434;BME280;54305;47.950;6.572;2023-02-20T11:47:25;95318.50;;;17.52;49.96
67434;BME280;54305;47.950;6.572;2023-02-20T11:50:07;95306.59;;;17.19;49.82
67434;BME280;54305;47.950;6.572;2023-02-20T11:52:33;95289.47;;;19.31;43.39
67434;BME280;54305;47.950;6.572;2023-02-20T11:57:53;95290.72;;;19.35;40.05
67434;BME280;54305;47.950;6.572;2023-02-20T12:00:29;95280.34;;;20.29;41.41
67434;BME280;54305;47.950;6.572;2023-02-20T12:05:36;95279.16;;;20.98;37.36
67434;BME280;54305;47.950;6.572;2023-02-20T12:08:02;95284.91;;;18.12;42.53
67434;BME280;54305;47.950;6.572;2023-02-20T12:12:52;95273.91;;;17.94;43.34
67434;BME280;54305;47.950;6.572;2023-02-20T12:15:19;95274.88;;;18.22;42.13
67434;BME280;54305;47.950;6.572;2023-02-20T12:18:04;95264.44;;;18.64;42.24
67434;BME280;54305;47.950;6.572;2023-02-20T12:20:36;95248.94;;;20.73;40.08
67434;BME280;54305;47.950;6.572;2023-02-20T12:28:20;95225.97;;;24.01;35.97
67434;BME280;54305;47.950;6.572;2023-02-20T12:38:35;95214.56;;;26.45;29.26
67434;BME280;54305;47.950;6.572;2023-02-20T12:46:34;95209.84;;;24.32;29.16
67434;BME280;54305;47.950;6.572;2023-02-20T12:54:54;95191.31;;;25.26;32.14
67434;BME280;54305;47.950;6.572;2023-02-20T12:57:26;95188.44;;;22.69;31.24
67434;BME280;54305;47.950;6.572;2023-02-20T12:59:58;95192.34;;;22.22;33.62
67434;BME280;54305;47.950;6.572;2023-02-20T13:02:34;95195.53;;;20.37;36.98
67434;BME280;54305;47.950;6.572;2023-02-20T13:05:01;95188.75;;;22.04;33.98
67434;BME280;54305;47.950;6.572;2023-02-20T13:07:36;95181.94;;;21.44;37.83
67434;BME280;54305;47.950;6.572;2023-02-20T13:10:12;95171.16;;;23.76;34.27
67434;BME280;54305;47.950;6.572;2023-02-20T13:12:39;95174.31;;;22.68;33.33
67434;BME280;54305;47.950;6.572;2023-02-20T13:17:50;95171.41;;;21.05;34.95
67434;BME280;54305;47.950;6.572;2023-02-20T13:20:21;95165.25;;;20.72;34.74
67434;BME280;54305;47.950;6.572;2023-02-20T13:25:48;95167.47;;;20.56;35.55
67434;BME280;54305;47.950;6.572;2023-02-20T13:28:21;95166.31;;;19.30;36.33
67434;BME280;54305;47.950;6.572;2023-02-20T13:33:31;95154.41;;;21.45;33.83
67434;BME280;54305;47.950;6.572;2023-02-20T13:35:57;95152.78;;;23.56;31.86
67434;BME280;54305;47.950;6.572;2023-02-20T13:38:24;95149.81;;;22.35;32.40
67434;BME280;54305;47.950;6.572;2023-02-20T13:45:45;95148.84;;;21.79;33.82
67434;BME280;54305;47.950;6.572;2023-02-20T13:53:38;95139.81;;;25.14;29.49
67434;BME280;54305;47.950;6.572;2023-02-20T13:56:03;95124.84;;;25.24;29.73
67434;BME280;54305;47.950;6.572;2023-02-20T13:58:28;95118.06;;;26.70;28.53
67434;BME280;54305;47.950;6.572;2023-02-20T14:00:54;95105.75;;;26.41;28.59
67434;BME280;54305;47.950;6.572;2023-02-20T14:03:26;95108.34;;;26.52;27.08
67434;BME280;54305;47.950;6.572;2023-02-20T14:06:12;95100.53;;;26.34;25.33
67434;BME280;54305;47.950;6.572;2023-02-20T14:08:39;95114.66;;;21.39;31.99
67434;BME280;54305;47.950;6.572;2023-02-20T14:13:31;95108.63;;;19.80;33.20
67434;BME280;54305;47.950;6.572;2023-02-20T14:15:57;95103.78;;;19.37;35.47
67434;BME280;54305;47.950;6.572;2023-02-20T14:18:26;95104.97;;;17.89;37.93
67434;BME280;54305;47.950;6.572;2023-02-20T14:21:04;95106.88;;;17.45;40.18
67434;BME280;54305;47.950;6.572;2023-02-20T14:23:32;95109.84;;;16.55;41.62
67434;BME280;54305;47.950;6.572;2023-02-20T14:26:01;95108.72;;;16.49;42.33
67434;BME280;54305;47.950;6.572;2023-02-20T14:28:28;95106.66;;;16.37;42.98
67434;BME280;54305;47.950;6.572;2023-02-20T14:31:12;95089.63;;;17.57;41.29
67434;BME280;54305;47.950;6.572;2023-02-20T14:33:42;95092.16;;;17.07;39.60
67434;BME280;54305;47.950;6.572;2023-02-20T14:36:18;95096.75;;;16.47;43.21
67434;BME280;54305;47.950;6.572;2023-02-20T14:38:56;95090.34;;;16.93;41.93
67434;BME280;54305;47.950;6.572;2023-02-20T14:41:24;95081.25;;;18.52;40.40
67434;BME280;54305;47.950;6.572;2023-02-20T14:43:54;95082.63;;;17.85;39.13
67434;BME280;54305;47.950;6.572;2023-02-20T14:46:38;95078.09;;;17.14;43.42
67434;BME280;54305;47.950;6.572;2023-02-20T14:51:29;95078.09;;;16.34;46.20
67434;BME280;54305;47.950;6.572;2023-02-20T14:53:58;95086.63;;;16.73;45.11
67434;BME280;54305;47.950;6.572;2023-02-20T14:56:24;95079.59;;;17.67;44.81